Harrisburg, Texas
Current Conditions -  °F | °C
As of 9:55 AM on Wednesday 28 Jan 2015 (Local Time) from KJAS Reporting Station
Clear Clear  
Wind Chill: 60°   Ceiling: Unl
Heat Index: 60°   Visibility: 10mi
Dew Point: 47°   Wind: 5mph
Humidity: 61%   Direction: 110°ESE
Pressure: 30.26"   Gusts: NA
Location:  30.9529°N, 94.0707°W
Report Text: KJAS 281555Z AUTO 11004KT 10SM CLR 16/08 A3026 RMK AO2 T01570082
Loading
Personal Weather Stations






























Interactive Weather Map New forecast layout! Learn more

10-Day Weather Forecast

Advertisements
Track Severe Weather on mobile